createdAt,value
2018-04-14T00:00:35.034Z,0.00
2018-04-14T00:01:35.012Z,0.00
2018-04-14T00:02:35.016Z,0.00
2018-04-14T00:03:34.998Z,0.00
2018-04-14T00:04:35.001Z,0.00
2018-04-14T00:05:35.003Z,0.00
2018-04-14T00:06:34.987Z,0.00
2018-04-14T00:07:34.972Z,0.00
2018-04-14T00:08:34.979Z,0.00
2018-04-14T00:09:34.962Z,0.00
2018-04-14T00:10:34.955Z,0.00
2018-04-14T00:11:34.946Z,0.00
2018-04-14T00:12:34.949Z,0.00
2018-04-14T00:13:34.934Z,0.00
2018-04-14T00:14:34.920Z,0.00
2018-04-14T00:15:34.913Z,0.00
2018-04-14T00:16:34.931Z,0.00
2018-04-14T00:17:34.897Z,0.00
2018-04-14T00:18:34.896Z,0.00
2018-04-14T00:19:34.877Z,0.00
2018-04-14T00:20:34.887Z,0.00
2018-04-14T00:21:34.872Z,0.00
2018-04-14T00:22:34.867Z,0.00
2018-04-14T00:23:34.851Z,0.00
2018-04-14T00:24:34.873Z,0.00
2018-04-14T00:25:34.849Z,0.00
2018-04-14T00:26:34.848Z,0.00
2018-04-14T00:27:34.840Z,0.00
2018-04-14T00:28:34.818Z,0.00
2018-04-14T00:29:34.823Z,0.00
2018-04-14T00:30:34.810Z,0.00
2018-04-14T00:31:34.807Z,0.00
2018-04-14T00:32:34.790Z,0.00
2018-04-14T00:33:34.787Z,0.00
2018-04-14T00:34:34.779Z,0.00
2018-04-14T00:35:34.782Z,0.00
2018-04-14T00:36:34.766Z,0.00
2018-04-14T00:37:34.764Z,0.00
2018-04-14T00:38:34.763Z,0.00
2018-04-14T00:39:34.766Z,0.00
2018-04-14T00:40:34.750Z,0.00
2018-04-14T00:41:34.741Z,0.00
2018-04-14T00:42:34.726Z,0.00
2018-04-14T00:43:34.727Z,0.00
2018-04-14T00:44:34.709Z,0.00
2018-04-14T00:45:34.711Z,0.00
2018-04-14T00:46:34.706Z,0.00
2018-04-14T00:47:34.696Z,0.00
2018-04-14T00:48:34.693Z,0.00
2018-04-14T00:49:34.673Z,0.00
2018-04-14T00:50:34.678Z,0.00
2018-04-14T00:51:34.662Z,0.00
2018-04-14T00:52:34.670Z,0.00
2018-04-14T00:53:34.657Z,0.00
2018-04-14T00:54:34.639Z,0.00
2018-04-14T00:55:34.629Z,0.00
2018-04-14T00:56:34.629Z,0.00
2018-04-14T00:57:34.622Z,0.00
2018-04-14T00:58:34.609Z,0.00
2018-04-14T00:59:34.600Z,0.00
2018-04-14T01:00:34.602Z,0.00
2018-04-14T01:01:34.644Z,0.00
2018-04-14T01:02:34.583Z,0.00
2018-04-14T01:03:34.587Z,0.00
2018-04-14T01:04:34.559Z,0.00
2018-04-14T01:05:34.563Z,0.00
2018-04-14T01:06:34.552Z,0.00
2018-04-14T01:07:34.555Z,0.00
2018-04-14T01:08:34.533Z,0.00
2018-04-14T01:09:34.524Z,0.00
2018-04-14T01:10:34.525Z,0.00
2018-04-14T01:11:34.537Z,0.00
2018-04-14T01:12:34.513Z,0.00
2018-04-14T01:13:34.507Z,0.00
2018-04-14T01:14:34.488Z,0.00
2018-04-14T01:15:34.500Z,0.00
2018-04-14T01:16:34.484Z,0.00
2018-04-14T01:17:34.481Z,0.00
2018-04-14T01:18:34.469Z,0.00
2018-04-14T01:19:34.453Z,0.00
2018-04-14T01:20:34.456Z,0.00
2018-04-14T01:21:34.438Z,0.00
2018-04-14T01:22:34.434Z,0.00
2018-04-14T01:23:34.439Z,0.00
2018-04-14T01:24:34.428Z,0.00
2018-04-14T01:25:34.415Z,0.00
2018-04-14T01:26:34.407Z,0.00
2018-04-14T01:27:34.421Z,0.00
2018-04-14T01:28:34.396Z,0.00
2018-04-14T01:29:34.380Z,0.00
2018-04-14T02:01:54.744Z,0.00
2018-04-14T02:02:54.690Z,0.00
2018-04-14T02:04:47.648Z,0.00
2018-04-14T02:05:47.611Z,0.00
2018-04-14T02:07:40.550Z,0.00
2018-04-14T02:08:40.533Z,0.00
2018-04-14T02:10:33.457Z,0.00
2018-04-14T02:11:33.429Z,0.00
2018-04-14T02:12:33.410Z,0.00
2018-04-14T02:13:33.408Z,0.00
2018-04-14T02:14:33.395Z,0.00
2018-04-14T02:15:33.385Z,0.00
2018-04-14T02:16:33.382Z,0.00
2018-04-14T02:17:33.365Z,0.00
2018-04-14T02:18:33.353Z,0.00
2018-04-14T02:19:33.343Z,0.00
2018-04-14T02:20:33.334Z,0.00
2018-04-14T02:21:33.334Z,0.00
2018-04-14T02:22:33.341Z,0.00
2018-04-14T02:23:33.312Z,0.00
2018-04-14T02:24:33.297Z,0.00
2018-04-14T02:25:33.290Z,0.00
2018-04-14T02:26:33.281Z,0.00
2018-04-14T02:27:33.284Z,0.00
2018-04-14T02:28:33.278Z,0.00
2018-04-14T02:29:33.252Z,0.00
2018-04-14T02:30:33.254Z,0.00
2018-04-14T02:31:33.245Z,0.00
2018-04-14T02:32:33.248Z,0.00
2018-04-14T02:33:33.229Z,0.00
2018-04-14T02:34:33.215Z,0.00
2018-04-14T02:35:33.211Z,0.00
2018-04-14T02:36:33.195Z,0.00
2018-04-14T02:37:33.201Z,0.00
2018-04-14T02:38:33.191Z,0.00
2018-04-14T02:39:33.177Z,0.00
2018-04-14T02:40:33.174Z,0.00
2018-04-14T02:41:33.164Z,0.00
2018-04-14T02:42:33.158Z,0.00
2018-04-14T02:43:33.151Z,0.00
2018-04-14T02:44:33.138Z,0.00
2018-04-14T02:45:33.135Z,0.00
2018-04-14T02:46:33.127Z,0.00
2018-04-14T02:47:33.121Z,0.00
2018-04-14T02:48:33.108Z,0.00
2018-04-14T02:49:33.093Z,0.00
2018-04-14T02:50:33.093Z,0.00
2018-04-14T02:51:33.089Z,0.00
2018-04-14T02:52:33.091Z,0.00
2018-04-14T02:53:33.077Z,0.00
2018-04-14T02:54:33.069Z,0.00
2018-04-14T02:55:33.050Z,0.00
2018-04-14T02:56:33.051Z,0.00
2018-04-14T02:57:33.038Z,0.00
2018-04-14T02:58:33.031Z,0.00
2018-04-14T02:59:33.031Z,0.00
2018-04-14T03:00:33.019Z,0.00
2018-04-14T03:01:33.004Z,0.00
2018-04-14T03:02:33.002Z,0.00
2018-04-14T03:03:32.995Z,0.00
2018-04-14T03:04:32.982Z,0.00
2018-04-14T03:05:32.979Z,0.00
2018-04-14T03:06:32.965Z,0.00
2018-04-14T03:07:32.955Z,0.00
2018-04-14T03:08:32.951Z,0.00
2018-04-14T03:09:32.943Z,0.00
2018-04-14T03:10:32.938Z,0.00
2018-04-14T03:11:32.938Z,0.00
2018-04-14T03:12:32.928Z,0.00
2018-04-14T03:13:32.915Z,0.00
2018-04-14T03:14:32.904Z,0.00
2018-04-14T03:15:32.906Z,0.00
2018-04-14T03:16:32.891Z,0.00
2018-04-14T03:17:32.885Z,0.00
2018-04-14T03:18:32.872Z,0.00
2018-04-14T03:19:32.858Z,0.00
2018-04-14T03:20:32.855Z,0.00
2018-04-14T03:21:32.851Z,0.00
2018-04-14T03:22:32.841Z,0.00
2018-04-14T03:23:32.830Z,0.00
2018-04-14T03:24:32.826Z,0.00
2018-04-14T03:25:32.826Z,0.00
2018-04-14T03:26:32.820Z,0.00
2018-04-14T03:27:32.804Z,0.00
2018-04-14T03:28:32.803Z,0.00
2018-04-14T03:29:32.785Z,0.00
2018-04-14T03:30:32.773Z,0.00
2018-04-14T03:31:32.773Z,0.00
2018-04-14T03:32:32.775Z,0.00
2018-04-14T03:33:32.753Z,0.00
2018-04-14T03:34:32.741Z,0.00
2018-04-14T03:35:32.747Z,0.00
2018-04-14T03:36:32.739Z,0.00
2018-04-14T03:37:32.728Z,0.00
2018-04-14T03:38:32.721Z,0.00
2018-04-14T03:39:32.706Z,0.00
2018-04-14T03:40:32.701Z,0.00
2018-04-14T03:41:32.693Z,0.00
2018-04-14T03:42:32.699Z,0.00
2018-04-14T03:43:32.683Z,0.00
2018-04-14T03:44:32.673Z,0.00
2018-04-14T03:45:32.672Z,0.00
2018-04-14T03:46:32.656Z,0.00
2018-04-14T03:47:32.651Z,0.00
2018-04-14T03:48:32.641Z,0.00
2018-04-14T03:49:32.634Z,0.00
2018-04-14T03:50:32.626Z,0.00
2018-04-14T03:51:32.604Z,0.00
2018-04-14T03:52:32.604Z,0.00
2018-04-14T03:53:32.605Z,0.00
2018-04-14T03:54:32.589Z,0.00
2018-04-14T03:55:32.586Z,0.00
2018-04-14T03:56:32.585Z,0.00
2018-04-14T03:57:32.570Z,0.00
2018-04-14T03:58:32.561Z,0.00
2018-04-14T03:59:32.551Z,0.00
2018-04-14T04:00:32.541Z,0.00
2018-04-14T04:01:32.538Z,4.00
2018-04-14T04:02:32.527Z,4.00
2018-04-14T04:03:32.517Z,0.00
2018-04-14T04:04:32.515Z,4.00
2018-04-14T04:05:32.501Z,4.00
2018-04-14T04:06:32.500Z,4.00
2018-04-14T04:07:32.494Z,4.00
2018-04-14T04:08:32.487Z,4.00
2018-04-14T04:09:32.473Z,4.00
2018-04-14T04:10:32.464Z,8.00
2018-04-14T04:11:32.494Z,12.00
2018-04-14T04:12:32.447Z,12.00
2018-04-14T04:13:32.448Z,12.00
2018-04-14T04:14:32.437Z,16.00
2018-04-14T04:15:32.431Z,20.00
2018-04-14T04:16:32.421Z,24.00
2018-04-14T04:17:32.412Z,32.00
2018-04-14T04:18:32.399Z,32.00
2018-04-14T04:19:32.402Z,40.00
2018-04-14T04:20:32.395Z,48.00
2018-04-14T04:21:32.376Z,56.00
2018-04-14T04:22:32.437Z,68.00
2018-04-14T04:23:32.366Z,76.00
2018-04-14T04:24:32.356Z,88.00
2018-04-14T04:25:32.350Z,100.00
2018-04-14T04:26:32.338Z,116.00
2018-04-14T04:27:32.333Z,132.00
2018-04-14T04:28:32.333Z,152.00
2018-04-14T04:29:32.319Z,172.00
2018-04-14T04:30:32.324Z,192.00
2018-04-14T04:31:32.298Z,216.00
2018-04-14T04:32:32.296Z,248.00
2018-04-14T04:33:32.274Z,276.00
2018-04-14T04:34:32.274Z,308.00
2018-04-14T04:35:32.267Z,340.00
2018-04-14T04:36:32.248Z,376.00
2018-04-14T04:37:32.247Z,408.00
2018-04-14T04:38:32.260Z,448.00
2018-04-14T04:39:32.228Z,492.00
2018-04-14T04:40:32.231Z,536.00
2018-04-14T04:41:32.227Z,588.00
2018-04-14T04:42:32.210Z,636.00
2018-04-14T04:43:32.203Z,688.00
2018-04-14T04:44:32.193Z,732.00
2018-04-14T04:45:32.188Z,780.00
2018-04-14T04:46:32.171Z,832.00
2018-04-14T04:47:32.166Z,880.00
2018-04-14T04:48:32.167Z,928.00
2018-04-14T04:49:32.157Z,976.00
2018-04-14T04:50:32.149Z,1032.00
2018-04-14T04:51:32.152Z,1084.00
2018-04-14T04:52:32.138Z,1136.00
2018-04-14T04:53:32.117Z,1196.00
2018-04-14T04:54:32.115Z,1252.00
2018-04-14T04:55:32.096Z,1308.00
2018-04-14T04:56:32.092Z,1344.00
2018-04-14T04:57:32.087Z,1388.00
2018-04-14T04:58:32.112Z,1460.00
2018-04-14T04:59:32.070Z,1548.00
2018-04-14T05:00:32.066Z,1616.00
2018-04-14T05:01:32.051Z,1668.00
2018-04-14T05:02:32.038Z,1724.00
2018-04-14T05:03:32.043Z,1780.00
2018-04-14T05:04:32.032Z,1840.00
2018-04-14T05:05:32.017Z,1896.00
2018-04-14T05:06:32.011Z,1956.00
2018-04-14T05:07:32.006Z,2016.00
2018-04-14T05:08:32.010Z,2072.00
2018-04-14T05:09:31.999Z,2152.00
2018-04-14T05:10:31.980Z,2208.00
2018-04-14T05:11:31.990Z,2272.00
2018-04-14T05:12:31.962Z,2336.00
2018-04-14T05:13:31.960Z,2400.00
2018-04-14T05:14:31.950Z,2472.00
2018-04-14T05:15:31.954Z,2536.00
2018-04-14T05:16:31.936Z,2592.00
2018-04-14T05:17:31.930Z,2652.00
2018-04-14T05:18:31.927Z,2680.00
2018-04-14T05:19:31.915Z,2728.00
2018-04-14T05:20:31.901Z,2772.00
2018-04-14T05:21:31.896Z,2792.00
2018-04-14T05:22:31.892Z,2860.00
2018-04-14T05:23:31.889Z,2940.00
2018-04-14T05:24:31.885Z,3020.00
2018-04-14T05:25:31.879Z,3096.00
2018-04-14T05:26:31.865Z,3124.00
2018-04-14T05:27:31.854Z,2872.00
2018-04-14T05:28:31.858Z,3148.00
2018-04-14T05:29:31.854Z,3356.00
2018-04-14T05:30:31.846Z,3412.00
2018-04-14T05:31:31.822Z,3468.00
2018-04-14T05:32:31.826Z,3528.00
2018-04-14T05:33:31.826Z,3588.00
2018-04-14T05:34:31.826Z,3644.00
2018-04-14T05:35:31.800Z,3704.00
2018-04-14T05:36:31.794Z,3768.00
2018-04-14T05:37:31.794Z,3832.00
2018-04-14T05:38:31.779Z,3892.00
2018-04-14T05:39:31.778Z,3944.00
2018-04-14T05:40:31.764Z,3996.00
2018-04-14T05:41:31.767Z,4048.00
2018-04-14T05:42:31.753Z,4048.00
2018-04-14T05:43:31.755Z,4088.00
2018-04-14T05:44:31.740Z,4132.00
2018-04-14T05:45:31.742Z,4168.00
2018-04-14T05:46:31.728Z,4240.00
2018-04-14T05:47:31.735Z,4336.00
2018-04-14T05:48:31.725Z,4424.00
2018-04-14T05:49:31.719Z,4388.00
2018-04-14T05:50:31.706Z,4452.00
2018-04-14T05:51:31.694Z,4600.00
2018-04-14T05:52:31.696Z,4664.00
2018-04-14T05:53:31.685Z,4820.00
2018-04-14T05:54:31.683Z,4920.00
2018-04-14T05:55:31.670Z,4976.00
2018-04-14T05:56:31.678Z,5036.00
2018-04-14T05:57:31.684Z,5112.00
2018-04-14T05:58:31.699Z,5208.00
2018-04-14T05:59:31.700Z,5244.00
2018-04-14T06:00:31.668Z,5328.00
2018-04-14T06:01:31.648Z,5416.00
2018-04-14T06:02:31.635Z,5500.00
2018-04-14T06:03:31.633Z,5600.00
2018-04-14T06:04:32.517Z,5648.00
2018-04-14T06:05:31.644Z,5640.00
2018-04-14T06:06:31.647Z,5592.00
2018-04-14T06:07:31.614Z,5452.00
2018-04-14T06:08:31.619Z,5428.00
2018-04-14T06:09:31.611Z,5472.00
2018-04-14T06:10:31.604Z,5512.00
2018-04-14T06:11:31.606Z,5580.00
2018-04-14T06:12:31.596Z,5636.00
2018-04-14T06:13:31.589Z,5728.00
2018-04-14T06:14:31.585Z,5872.00
2018-04-14T06:15:31.575Z,6004.00
2018-04-14T06:16:31.574Z,6092.00
2018-04-14T06:17:31.578Z,6216.00
2018-04-14T06:18:31.574Z,6408.00
2018-04-14T06:19:31.569Z,6600.00
2018-04-14T06:20:31.598Z,6712.00
2018-04-14T06:21:31.545Z,6808.00
2018-04-14T06:22:31.552Z,6944.00
2018-04-14T06:23:31.545Z,7072.00
2018-04-14T06:24:31.540Z,7212.00
2018-04-14T06:25:31.537Z,7372.00
2018-04-14T06:26:31.536Z,7520.00
2018-04-14T06:27:31.536Z,7592.00
2018-04-14T06:28:31.528Z,7660.00
2018-04-14T06:29:31.520Z,7804.00
2018-04-14T06:30:31.517Z,7944.00
2018-04-14T06:31:31.519Z,8112.00
2018-04-14T06:32:31.515Z,8240.00
2018-04-14T06:33:31.510Z,8380.00
2018-04-14T06:34:31.507Z,8376.00
2018-04-14T06:35:31.495Z,8520.00
2018-04-14T06:36:31.496Z,8564.00
2018-04-14T06:37:31.495Z,8424.00
2018-04-14T06:38:31.497Z,8296.00
2018-04-14T06:39:31.490Z,8176.00
2018-04-14T06:40:31.507Z,8088.00
2018-04-14T06:41:31.484Z,7936.00
2018-04-14T06:42:31.488Z,7872.00
2018-04-14T06:43:31.478Z,7748.00
2018-04-14T06:44:31.469Z,7920.00
2018-04-14T06:45:31.468Z,8032.00
2018-04-14T06:46:31.468Z,8360.00
2018-04-14T06:47:31.469Z,8752.00
2018-04-14T06:48:31.458Z,8888.00
2018-04-14T06:49:31.469Z,9064.00
2018-04-14T06:50:31.475Z,9204.00
2018-04-14T06:51:31.466Z,9476.00
2018-04-14T06:52:31.453Z,9640.00
2018-04-14T06:53:31.444Z,9696.00
2018-04-14T06:54:31.467Z,9752.00
2018-04-14T06:55:31.451Z,9832.00
2018-04-14T06:56:31.444Z,9900.00
2018-04-14T06:57:31.472Z,10024.00
2018-04-14T06:58:31.441Z,10148.00
2018-04-14T06:59:31.450Z,10312.00
2018-04-14T07:00:31.438Z,10340.00
2018-04-14T07:01:31.441Z,10480.00
2018-04-14T07:02:31.423Z,10308.00
2018-04-14T07:03:31.437Z,10212.00
2018-04-14T07:04:31.446Z,10744.00
2018-04-14T07:05:31.425Z,11300.00
2018-04-14T07:06:31.426Z,11840.00
2018-04-14T07:07:31.426Z,12252.00
2018-04-14T07:08:31.460Z,12504.00
2018-04-14T07:09:31.421Z,12760.00
2018-04-14T07:10:31.421Z,12908.00
2018-04-14T07:11:31.416Z,12968.00
2018-04-14T07:12:31.411Z,12900.00
2018-04-14T07:13:31.420Z,12932.00
2018-04-14T07:14:31.430Z,12964.00
2018-04-14T07:15:31.408Z,12848.00
2018-04-14T07:16:31.410Z,12728.00
2018-04-14T07:17:31.410Z,12652.00
2018-04-14T07:18:31.409Z,13244.00
2018-04-14T07:19:31.415Z,13284.00
2018-04-14T07:20:31.435Z,12832.00
2018-04-14T07:21:31.424Z,13516.00
2018-04-14T07:22:31.405Z,13912.00
2018-04-14T07:23:31.415Z,14224.00
2018-04-14T07:24:31.409Z,14904.00
2018-04-14T07:25:31.409Z,15936.00
2018-04-14T07:26:31.410Z,16864.00
2018-04-14T07:27:31.411Z,19968.00
2018-04-14T07:28:31.405Z,24960.00
2018-04-14T07:29:31.410Z,26400.00
2018-04-14T07:30:31.402Z,27168.00
2018-04-14T07:31:31.421Z,28000.00
2018-04-14T07:32:31.409Z,27264.00
2018-04-14T07:33:31.410Z,26944.00
2018-04-14T07:34:31.416Z,28544.00
2018-04-14T07:35:31.423Z,27360.00
2018-04-14T07:36:31.435Z,27488.00
2018-04-14T07:37:31.427Z,27648.00
2018-04-14T07:38:31.434Z,28448.00
2018-04-14T07:39:31.446Z,27040.00
2018-04-14T07:40:31.447Z,28416.00
2018-04-14T07:41:31.444Z,29920.00
2018-04-14T07:42:31.459Z,31072.00
2018-04-14T07:43:31.473Z,30688.00
2018-04-14T07:44:31.464Z,31136.00
2018-04-14T07:45:31.457Z,30560.00
2018-04-14T07:46:31.476Z,29344.00
2018-04-14T07:47:31.485Z,29760.00
2018-04-14T07:48:31.500Z,30016.00
2018-04-14T07:49:31.515Z,29376.00
2018-04-14T07:50:31.520Z,31200.00
2018-04-14T07:51:31.512Z,31872.00
2018-04-14T07:52:31.528Z,31968.00
2018-04-14T07:53:31.527Z,32544.00
2018-04-14T07:54:31.532Z,32800.00
2018-04-14T07:55:31.552Z,32800.00
2018-04-14T07:56:31.545Z,33984.00
2018-04-14T07:57:31.563Z,34720.00
2018-04-14T07:58:31.583Z,35328.00
2018-04-14T07:59:31.580Z,34880.00
2018-04-14T08:00:31.593Z,34304.00
2018-04-14T08:01:31.601Z,35712.00
2018-04-14T08:02:31.609Z,35744.00
2018-04-14T08:03:31.617Z,38848.00
2018-04-14T08:04:31.639Z,39648.00
2018-04-14T08:05:31.634Z,37568.00
2018-04-14T08:06:31.648Z,38720.00
2018-04-14T08:07:31.659Z,40160.00
2018-04-14T08:08:31.678Z,42272.00
2018-04-14T08:09:31.701Z,42816.00
2018-04-14T08:10:31.690Z,43360.00
2018-04-14T08:11:31.706Z,42368.00
2018-04-14T08:12:31.721Z,41664.00
2018-04-14T08:13:31.728Z,42816.00
2018-04-14T08:14:31.753Z,43392.00
2018-04-14T08:15:31.749Z,44096.00
2018-04-14T08:16:31.765Z,44000.00
2018-04-14T08:17:31.769Z,46080.00
2018-04-14T08:18:31.775Z,47872.00
2018-04-14T08:19:31.793Z,45216.00
2018-04-14T08:20:31.810Z,44032.00
2018-04-14T08:21:31.835Z,44160.00
2018-04-14T08:22:31.834Z,46272.00
2018-04-14T08:23:31.852Z,47296.00
2018-04-14T08:24:31.861Z,48256.00
2018-04-14T08:25:31.875Z,48320.00
2018-04-14T08:26:31.872Z,48672.00
2018-04-14T08:27:31.891Z,49408.00
2018-04-14T08:28:31.914Z,51200.00
2018-04-14T08:29:31.921Z,50464.00
2018-04-14T08:30:31.930Z,45536.00
2018-04-14T08:31:31.944Z,46144.00
2018-04-14T08:32:31.968Z,47072.00
2018-04-14T08:33:32.015Z,50656.00
2018-04-14T08:34:32.017Z,48768.00
2018-04-14T08:35:31.997Z,49344.00
2018-04-14T08:36:32.014Z,51776.00
2018-04-14T08:37:32.088Z,54560.00
2018-04-14T08:38:32.038Z,56288.00
2018-04-14T08:39:32.056Z,54848.00
2018-04-14T08:40:32.066Z,52768.00
2018-04-14T08:41:32.076Z,50560.00
2018-04-14T08:42:32.093Z,50496.00
2018-04-14T08:43:32.110Z,48448.00
2018-04-14T08:44:32.127Z,48736.00
2018-04-14T08:45:32.137Z,48704.00
2018-04-14T08:46:32.151Z,49344.00
2018-04-14T08:47:32.164Z,48064.00
2018-04-14T08:48:32.191Z,50976.00
2018-04-14T08:49:32.196Z,51584.00
2018-04-14T08:50:32.205Z,49728.00
2018-04-14T08:51:32.223Z,56544.00
2018-04-14T08:52:32.242Z,58560.00
2018-04-14T08:53:32.255Z,55264.00
2018-04-14T08:54:32.261Z,54592.00
2018-04-14T08:55:32.272Z,53248.00
2018-04-14T08:56:32.294Z,59008.00
2018-04-14T08:57:32.311Z,58080.00
2018-04-14T08:58:32.320Z,59680.00
2018-04-14T08:59:32.345Z,60992.00
2018-04-14T09:00:32.407Z,63744.00
2018-04-14T09:01:32.369Z,62272.00
2018-04-14T09:02:32.427Z,57888.00
2018-04-14T09:03:32.406Z,64704.00
2018-04-14T09:04:32.422Z,70880.00
2018-04-14T09:05:32.428Z,67968.00
2018-04-14T09:06:32.449Z,67424.00
2018-04-14T09:07:32.456Z,67040.00
2018-04-14T09:08:32.474Z,62720.00
2018-04-14T09:09:32.502Z,62336.00
2018-04-14T09:10:32.500Z,62240.00
2018-04-14T09:11:32.528Z,65280.00
2018-04-14T09:12:32.546Z,67168.00
2018-04-14T09:13:32.549Z,70816.00
2018-04-14T09:14:32.609Z,72512.00
2018-04-14T09:15:32.579Z,74144.00
2018-04-14T09:16:32.615Z,71072.00
2018-04-14T09:17:32.625Z,71328.00
2018-04-14T09:18:32.670Z,71296.00
2018-04-14T09:19:32.655Z,71424.00
2018-04-14T09:20:32.673Z,71552.00
2018-04-14T09:21:32.701Z,71200.00
2018-04-14T09:22:32.705Z,73824.00
2018-04-14T09:23:32.721Z,73376.00
2018-04-14T09:24:32.757Z,78720.00
2018-04-14T09:25:32.778Z,73920.00
2018-04-14T09:26:32.778Z,76064.00
2018-04-14T09:27:32.792Z,75744.00
2018-04-14T09:28:32.808Z,74432.00
2018-04-14T09:29:32.824Z,74464.00
2018-04-14T09:30:32.843Z,73536.00
2018-04-14T09:31:32.846Z,76768.00
2018-04-14T09:32:32.865Z,72992.00
2018-04-14T09:33:32.885Z,71872.00
2018-04-14T09:34:32.908Z,70848.00
2018-04-14T09:35:32.942Z,74112.00
2018-04-14T09:36:32.964Z,75584.00
2018-04-14T09:37:32.957Z,77920.00
2018-04-14T09:38:32.968Z,82080.00
2018-04-14T09:39:32.988Z,76800.00
2018-04-14T09:40:33.008Z,81760.00
2018-04-14T09:41:33.027Z,81312.00
2018-04-14T09:42:33.052Z,83488.00
2018-04-14T09:43:33.063Z,84096.00
2018-04-14T09:44:33.080Z,82592.00
2018-04-14T09:45:33.101Z,76800.00
2018-04-14T09:46:33.123Z,77248.00
2018-04-14T09:47:33.150Z,73472.00
2018-04-14T09:48:33.145Z,75584.00
2018-04-14T09:49:33.169Z,79040.00
2018-04-14T09:50:33.197Z,77056.00
2018-04-14T09:51:33.197Z,72352.00
2018-04-14T09:52:33.223Z,71232.00
2018-04-14T09:53:33.238Z,71808.00
2018-04-14T09:54:33.264Z,67456.00
2018-04-14T09:55:33.283Z,58272.00
2018-04-14T09:56:33.289Z,68000.00
2018-04-14T09:57:33.313Z,66656.00
2018-04-14T09:58:33.321Z,74016.00
2018-04-14T09:59:33.353Z,73952.00
2018-04-14T10:00:33.360Z,66432.00
2018-04-14T10:01:33.369Z,73920.00
2018-04-14T10:02:33.388Z,75328.00
2018-04-14T10:03:33.408Z,83552.00
2018-04-14T10:04:33.415Z,84096.00
2018-04-14T10:05:33.441Z,83776.00
2018-04-14T10:06:33.456Z,78432.00
2018-04-14T10:07:33.476Z,75424.00
2018-04-14T10:08:33.490Z,66304.00
2018-04-14T10:09:33.518Z,63744.00
2018-04-14T10:10:33.554Z,58848.00
2018-04-14T10:11:33.534Z,68608.00
2018-04-14T10:12:33.551Z,65280.00
2018-04-14T10:13:33.608Z,60608.00
2018-04-14T10:14:33.584Z,66752.00
2018-04-14T10:15:33.616Z,59520.00
2018-04-14T10:16:33.621Z,59744.00
2018-04-14T10:17:33.634Z,63744.00
2018-04-14T10:18:33.710Z,68512.00
2018-04-14T10:19:33.658Z,63776.00
2018-04-14T10:20:33.669Z,69152.00
2018-04-14T10:21:33.683Z,70912.00
2018-04-14T10:22:33.710Z,71552.00
2018-04-14T10:23:33.744Z,67872.00
2018-04-14T10:24:33.792Z,71968.00
2018-04-14T10:25:33.751Z,77504.00
2018-04-14T10:26:33.760Z,79968.00
2018-04-14T10:27:33.780Z,83520.00
2018-04-14T10:28:33.786Z,78912.00
2018-04-14T10:29:33.824Z,84256.00
2018-04-14T10:30:33.819Z,79936.00
2018-04-14T10:31:33.836Z,76032.00
2018-04-14T10:32:33.852Z,69088.00
2018-04-14T10:33:33.884Z,58080.00
2018-04-14T10:34:33.884Z,61824.00
2018-04-14T10:35:33.895Z,63712.00
2018-04-14T10:36:33.912Z,64544.00
2018-04-14T10:37:33.924Z,66688.00
2018-04-14T10:38:33.959Z,68352.00
2018-04-14T10:39:33.951Z,58464.00
2018-04-14T10:40:33.965Z,55776.00
2018-04-14T10:41:34.008Z,56384.00
2018-04-14T10:42:33.990Z,54784.00
2018-04-14T10:43:34.010Z,65280.00
2018-04-14T10:44:34.022Z,65696.00
2018-04-14T10:45:34.031Z,69984.00
2018-04-14T10:46:34.055Z,69472.00
2018-04-14T10:47:34.065Z,68576.00
2018-04-14T10:48:34.068Z,70176.00
2018-04-14T10:49:34.090Z,71200.00
2018-04-14T10:50:34.101Z,70560.00
2018-04-14T10:51:34.116Z,68672.00
2018-04-14T10:52:34.142Z,68160.00
2018-04-14T10:53:34.187Z,63648.00
2018-04-14T10:54:34.153Z,60320.00
2018-04-14T10:55:34.194Z,69312.00
2018-04-14T10:56:34.237Z,73376.00
2018-04-14T10:57:34.214Z,75520.00
2018-04-14T10:58:34.226Z,75392.00
2018-04-14T10:59:34.228Z,77920.00
2018-04-14T11:00:34.254Z,78432.00
2018-04-14T11:01:34.247Z,80576.00
2018-04-14T11:02:34.256Z,79488.00
2018-04-14T11:03:34.280Z,78048.00
2018-04-14T11:04:34.295Z,79776.00
2018-04-14T11:05:34.309Z,80576.00
2018-04-14T11:06:34.325Z,78400.00
2018-04-14T11:07:34.336Z,78176.00
2018-04-14T11:08:34.354Z,80192.00
2018-04-14T11:09:34.359Z,75296.00
2018-04-14T11:10:34.366Z,76320.00
2018-04-14T11:11:34.403Z,82272.00
2018-04-14T11:12:34.421Z,83456.00
2018-04-14T11:13:34.419Z,84512.00
2018-04-14T11:14:34.446Z,82912.00
2018-04-14T11:15:34.445Z,86528.00
2018-04-14T11:16:34.458Z,86688.00
2018-04-14T11:17:34.489Z,83616.00
2018-04-14T11:18:34.488Z,86432.00
2018-04-14T11:19:34.502Z,89568.00
2018-04-14T11:20:34.551Z,90336.00
2018-04-14T11:21:34.591Z,88064.00
2018-04-14T11:22:34.556Z,90304.00
2018-04-14T11:23:34.567Z,91552.00
2018-04-14T11:24:34.599Z,92640.00
2018-04-14T11:25:34.592Z,92960.00
2018-04-14T11:26:34.619Z,93696.00
2018-04-14T11:27:34.628Z,91904.00
2018-04-14T11:28:34.634Z,95072.00
2018-04-14T11:29:34.672Z,96992.00
2018-04-14T11:30:34.680Z,93344.00
2018-04-14T11:31:34.696Z,93952.00
2018-04-14T11:32:34.708Z,94208.00
2018-04-14T11:33:34.716Z,94528.00
2018-04-14T11:34:34.745Z,92352.00
2018-04-14T11:35:34.753Z,92256.00
2018-04-14T11:36:34.765Z,98240.00
2018-04-14T11:37:34.776Z,95456.00
2018-04-14T11:38:34.791Z,96896.00
2018-04-14T11:39:34.833Z,101824.00
2018-04-14T11:40:34.822Z,101024.00
2018-04-14T11:41:34.842Z,98528.00
2018-04-14T11:42:34.858Z,101920.00
2018-04-14T11:43:34.870Z,102272.00
2018-04-14T11:44:34.909Z,99744.00
2018-04-14T11:45:34.896Z,96544.00
2018-04-14T11:46:34.929Z,98304.00
2018-04-14T11:47:34.928Z,98144.00
2018-04-14T11:48:34.949Z,94784.00
2018-04-14T11:49:34.958Z,92000.00
2018-04-14T11:50:34.985Z,89024.00
2018-04-14T11:51:34.990Z,83808.00
2018-04-14T11:52:35.007Z,88256.00
2018-04-14T11:53:35.020Z,91008.00
2018-04-14T11:54:35.046Z,95584.00
2018-04-14T11:55:35.060Z,94784.00
2018-04-14T11:56:35.075Z,92960.00
2018-04-14T11:57:35.095Z,92608.00
2018-04-14T11:58:35.114Z,89664.00
2018-04-14T11:59:35.113Z,84576.00
2018-04-14T12:00:35.121Z,84224.00
2018-04-14T12:01:35.142Z,88704.00
2018-04-14T12:02:35.155Z,89376.00
2018-04-14T12:03:35.176Z,88000.00
2018-04-14T12:04:35.181Z,87840.00
2018-04-14T12:05:35.193Z,88768.00
2018-04-14T12:06:35.213Z,85760.00
2018-04-14T12:07:35.226Z,85120.00
2018-04-14T12:08:35.241Z,90912.00
2018-04-14T12:09:35.260Z,92768.00
2018-04-14T12:10:35.284Z,90944.00
2018-04-14T12:11:35.324Z,85344.00
2018-04-14T12:12:35.295Z,83488.00
2018-04-14T12:13:35.306Z,83680.00
2018-04-14T12:14:35.321Z,83232.00
2018-04-14T12:15:35.343Z,81920.00
2018-04-14T12:16:35.362Z,80256.00
2018-04-14T12:17:35.371Z,79744.00
2018-04-14T12:18:35.380Z,80096.00
2018-04-14T12:19:35.411Z,78208.00
2018-04-14T12:20:35.428Z,78112.00
2018-04-14T12:21:35.415Z,76864.00
2018-04-14T12:22:35.456Z,74880.00
2018-04-14T12:23:35.451Z,68832.00
2018-04-14T12:24:35.467Z,34016.00
2018-04-14T12:25:35.496Z,12272.00
2018-04-14T12:26:35.488Z,10832.00
2018-04-14T12:27:35.507Z,10044.00
2018-04-14T12:28:35.518Z,9532.00
2018-04-14T12:29:35.551Z,9276.00
2018-04-14T12:30:35.531Z,9116.00
2018-04-14T12:31:35.561Z,9008.00
2018-04-14T12:32:35.579Z,8948.00
2018-04-14T12:33:35.570Z,8996.00
2018-04-14T12:34:35.639Z,9004.00
2018-04-14T12:35:35.595Z,9032.00
2018-04-14T12:36:35.585Z,9076.00
2018-04-14T12:37:35.607Z,9040.00
2018-04-14T12:38:35.610Z,8972.00
2018-04-14T12:39:35.626Z,8876.00
2018-04-14T12:40:35.630Z,8756.00
2018-04-14T12:41:35.631Z,8660.00
2018-04-14T12:42:35.640Z,8612.00
2018-04-14T12:43:35.645Z,8588.00
2018-04-14T12:44:35.655Z,8628.00
2018-04-14T12:45:35.659Z,8680.00
2018-04-14T12:46:35.653Z,8692.00
2018-04-14T12:47:35.656Z,8660.00
2018-04-14T12:48:35.650Z,8560.00
2018-04-14T12:49:35.666Z,8400.00
2018-04-14T12:50:35.658Z,8352.00